createdAt,value
2023-01-01T00:05:07.130Z,53.90
2023-01-01T00:10:30.984Z,65.07
2023-01-01T00:15:51.673Z,53.88
2023-01-01T00:21:15.702Z,43.35
2023-01-01T00:26:36.618Z,60.17
2023-01-01T00:31:57.392Z,69.80
2023-01-01T00:37:18.355Z,52.95
2023-01-01T00:42:41.604Z,57.38
2023-01-01T00:48:02.376Z,64.25
2023-01-01T00:53:22.944Z,57.58
2023-01-01T00:58:44.907Z,70.60
2023-01-01T01:04:21.861Z,60.40
2023-01-01T01:09:42.510Z,58.58
2023-01-01T01:15:03.628Z,60.65
2023-01-01T01:20:24.425Z,77.47
2023-01-01T01:25:45.164Z,63.35
2023-01-01T01:31:05.623Z,71.13
2023-01-01T01:36:27.386Z,52.88
2023-01-01T01:41:48.024Z,68.53
2023-01-01T01:47:22.428Z,45.72
2023-01-01T01:52:58.763Z,58.95
2023-01-01T01:58:19.590Z,67.28
2023-01-01T02:04:02.843Z,61.30
2023-01-01T02:09:24.018Z,43.78
2023-01-01T02:14:44.871Z,51.85
2023-01-01T02:20:29.921Z,75.75
2023-01-01T02:26:38.948Z,48.33
2023-01-01T02:32:13.017Z,76.28
2023-01-01T02:37:33.803Z,88.73
2023-01-01T02:42:55.906Z,78.60
2023-01-01T02:48:39.403Z,65.22
2023-01-01T02:54:11.156Z,48.20
2023-01-01T03:00:06.434Z,63.65
2023-01-01T03:11:34.702Z,77.80
2023-01-01T03:17:05.251Z,72.15
2023-01-01T03:22:31.291Z,51.00
2023-01-01T03:28:10.898Z,77.28
2023-01-01T03:33:58.657Z,75.57
2023-01-01T03:39:31.465Z,53.10
2023-01-01T03:45:04.562Z,52.33
2023-01-01T03:50:47.281Z,64.43
2023-01-01T03:56:21.953Z,53.17
2023-01-01T04:01:50.204Z,50.23
2023-01-01T04:07:15.214Z,60.58
2023-01-01T04:12:36.108Z,55.95
2023-01-01T04:17:56.994Z,80.20
2023-01-01T04:23:17.335Z,57.50
2023-01-01T04:28:38.230Z,54.80
2023-01-01T04:33:59.209Z,66.72
2023-01-01T04:39:19.780Z,46.78
2023-01-01T04:44:40.603Z,42.35
2023-01-01T04:50:01.495Z,59.25
2023-01-01T04:55:22.387Z,57.45
2023-01-01T05:00:43.053Z,61.22
2023-01-01T05:06:06.271Z,54.53
2023-01-01T05:11:29.269Z,63.40
2023-01-01T05:16:49.872Z,46.78
2023-01-01T05:22:11.393Z,44.92
2023-01-01T05:27:32.208Z,56.42
2023-01-01T05:32:53.180Z,62.13
2023-01-01T05:38:13.568Z,43.70
2023-01-01T05:43:35.214Z,51.20
2023-01-01T05:48:56.193Z,49.63
2023-01-01T05:59:37.096Z,47.10
2023-01-01T06:04:58.685Z,64.95
2023-01-01T06:10:20.016Z,54.58
2023-01-01T06:15:41.880Z,71.97
2023-01-01T06:21:15.004Z,47.13
2023-01-01T06:26:38.375Z,57.33
2023-01-01T06:31:58.808Z,52.53
2023-01-01T06:37:19.683Z,62.35
2023-01-01T06:42:40.397Z,61.15
2023-01-01T06:48:01.047Z,49.45
2023-01-01T06:53:26.331Z,47.20
2023-01-01T06:58:47.444Z,43.15
2023-01-01T07:04:11.315Z,53.55
2023-01-01T07:09:32.171Z,51.20
2023-01-01T07:14:52.914Z,48.53
2023-01-01T07:20:14.425Z,33.03
2023-01-01T07:25:34.974Z,37.70
2023-01-01T07:30:55.755Z,38.97
2023-01-01T07:36:16.459Z,38.42
2023-01-01T07:41:37.419Z,48.53
2023-01-01T07:47:06.047Z,29.50
2023-01-01T07:52:26.757Z,37.72
2023-01-01T07:57:49.098Z,49.67
2023-01-01T08:03:10.521Z,35.88
2023-01-01T08:08:31.079Z,48.00
2023-01-01T08:13:51.763Z,46.20
2023-01-01T08:19:12.077Z,49.55
2023-01-01T08:24:33.093Z,37.38
2023-01-01T08:29:53.705Z,21.13
2023-01-01T08:35:14.196Z,44.47
2023-01-01T08:40:34.537Z,45.53
2023-01-01T08:45:55.542Z,47.08
2023-01-01T08:51:17.377Z,42.92
2023-01-01T08:56:38.845Z,40.55
2023-01-01T09:01:59.996Z,37.28
2023-01-01T09:07:22.216Z,44.55
2023-01-01T09:12:42.824Z,36.33
2023-01-01T09:18:04.070Z,40.47
2023-01-01T09:23:24.980Z,32.75
2023-01-01T09:28:45.750Z,45.00
2023-01-01T09:34:06.699Z,46.50
2023-01-01T09:39:27.755Z,48.92
2023-01-01T09:45:21.200Z,54.75
2023-01-01T09:50:45.268Z,45.15
2023-01-01T09:56:15.001Z,53.22
2023-01-01T10:02:04.301Z,48.70
2023-01-01T10:07:40.445Z,34.78
2023-01-01T10:13:10.411Z,56.75
2023-01-01T10:18:34.734Z,43.95
2023-01-01T10:24:02.105Z,41.65
2023-01-01T10:29:28.729Z,36.55
2023-01-01T10:34:51.198Z,44.72
2023-01-01T10:40:23.815Z,42.53
2023-01-01T10:45:49.084Z,50.00
2023-01-01T10:51:16.928Z,55.95
2023-01-01T10:56:41.535Z,53.97
2023-01-01T11:07:36.936Z,51.33
2023-01-01T11:13:06.100Z,35.55
2023-01-01T11:18:36.135Z,39.63
2023-01-01T11:24:17.780Z,43.65
2023-01-01T11:29:38.236Z,48.08
2023-01-01T11:35:02.138Z,37.50
2023-01-01T11:40:33.365Z,50.05
2023-01-01T11:45:57.199Z,43.95
2023-01-01T11:51:33.434Z,51.85
2023-01-01T11:57:00.556Z,37.50
2023-01-01T12:02:36.231Z,41.30
2023-01-01T12:08:03.173Z,49.65
2023-01-01T12:13:37.852Z,36.40
2023-01-01T12:19:10.871Z,43.75
2023-01-01T12:24:35.326Z,29.92
2023-01-01T12:30:11.702Z,46.50
2023-01-01T12:35:41.368Z,69.07
2023-01-01T12:41:36.293Z,38.72
2023-01-01T12:47:08.686Z,45.28
2023-01-01T12:52:59.453Z,47.55
2023-01-01T12:58:26.944Z,36.75
2023-01-01T13:03:50.821Z,36.92
2023-01-01T13:09:24.563Z,41.08
2023-01-01T13:14:46.921Z,34.75
2023-01-01T13:20:24.015Z,29.52
2023-01-01T13:25:44.361Z,44.85
2023-01-01T13:31:05.288Z,43.35
2023-01-01T13:36:26.382Z,44.95
2023-01-01T13:41:46.854Z,46.63
2023-01-01T13:47:45.509Z,56.63
2023-01-01T13:53:24.199Z,48.47
2023-01-01T13:58:53.749Z,70.53
2023-01-01T14:04:36.915Z,63.38
2023-01-01T14:10:17.259Z,51.78
2023-01-01T14:15:40.386Z,52.05
2023-01-01T14:21:01.658Z,52.75
2023-01-01T14:26:25.552Z,37.38
2023-01-01T14:31:46.748Z,40.63
2023-01-01T14:37:23.963Z,65.22
2023-01-01T14:42:47.573Z,72.82
2023-01-01T14:48:18.541Z,35.30
2023-01-01T14:53:41.575Z,53.30
2023-01-01T14:59:30.663Z,49.08
2023-01-01T15:04:51.758Z,58.55
2023-01-01T15:10:12.993Z,49.15
2023-01-01T15:15:42.883Z,51.78
2023-01-01T15:21:12.799Z,36.13
2023-01-01T15:26:37.198Z,35.83
2023-01-01T15:32:01.057Z,27.95
2023-01-01T15:37:34.890Z,31.20
2023-01-01T15:42:55.180Z,52.28
2023-01-01T15:48:31.625Z,50.30
2023-01-01T15:53:59.533Z,48.40
2023-01-01T15:59:31.474Z,40.63
2023-01-01T16:04:52.070Z,36.08
2023-01-01T16:10:15.933Z,43.90
2023-01-01T16:15:37.250Z,49.45
2023-01-01T16:20:58.099Z,52.25
2023-01-01T16:26:18.721Z,40.05
2023-01-01T16:31:40.326Z,56.13
2023-01-01T16:37:00.796Z,52.85
2023-01-01T16:42:21.445Z,36.25
2023-01-01T16:47:42.050Z,40.38
2023-01-01T16:53:02.988Z,44.53
2023-01-01T16:58:48.905Z,65.88
2023-01-01T17:04:04.458Z,55.45
2023-01-01T17:09:25.118Z,40.50
2023-01-01T17:14:46.931Z,45.75
2023-01-01T17:20:08.262Z,41.63
2023-01-01T17:25:28.881Z,40.15
2023-01-01T17:30:49.440Z,56.92
2023-01-01T17:36:10.743Z,31.88
2023-01-01T17:41:31.633Z,51.08
2023-01-01T17:46:55.043Z,46.20
2023-01-01T17:52:16.206Z,50.53
2023-01-01T17:57:36.616Z,41.97
2023-01-01T18:02:57.373Z,51.75
2023-01-01T18:08:18.047Z,67.38
2023-01-01T18:13:38.748Z,58.60
2023-01-01T18:19:04.486Z,50.67
2023-01-01T18:24:25.382Z,38.90
2023-01-01T18:29:47.232Z,34.50
2023-01-01T18:35:08.558Z,51.63
2023-01-01T18:40:32.665Z,43.92
2023-01-01T18:45:53.293Z,46.20
2023-01-01T18:51:18.497Z,59.70
2023-01-01T18:56:39.300Z,47.22
2023-01-01T19:02:00.501Z,43.10
2023-01-01T19:07:21.320Z,45.00
2023-01-01T19:12:42.287Z,51.17
2023-01-01T19:18:02.952Z,49.28
2023-01-01T19:23:24.616Z,48.63
2023-01-01T19:28:56.610Z,50.42
2023-01-01T19:34:17.585Z,43.20
2023-01-01T19:39:38.764Z,40.42
2023-01-01T19:45:00.906Z,45.38
2023-01-01T19:50:21.588Z,49.35
2023-01-01T19:55:42.848Z,38.53
2023-01-01T20:01:03.615Z,41.55
2023-01-01T20:06:25.372Z,45.65
2023-01-01T20:11:50.488Z,47.05
2023-01-01T20:17:11.635Z,31.95
2023-01-01T20:22:31.825Z,42.58
2023-01-01T20:28:11.404Z,32.90
2023-01-01T20:33:31.996Z,29.48
2023-01-01T20:38:52.706Z,28.73
2023-01-01T20:44:13.448Z,34.92
2023-01-01T20:49:33.773Z,29.77
2023-01-01T20:54:54.481Z,27.13
2023-01-01T21:00:15.480Z,29.80
2023-01-01T21:05:35.920Z,30.70
2023-01-01T21:10:56.334Z,29.77
2023-01-01T21:16:21.219Z,17.85
2023-01-01T21:21:50.884Z,21.17
2023-01-01T21:27:19.020Z,34.33
2023-01-01T21:32:42.335Z,26.48
2023-01-01T21:38:17.118Z,25.73
2023-01-01T21:43:44.159Z,21.77
2023-01-01T21:49:17.008Z,25.02
2023-01-01T21:54:38.462Z,30.92
2023-01-01T21:59:59.177Z,21.55
2023-01-01T22:05:30.493Z,23.55
2023-01-01T22:10:51.807Z,21.88
2023-01-01T22:16:15.881Z,23.98
2023-01-01T22:21:36.549Z,21.97
2023-01-01T22:27:16.427Z,22.95
2023-01-01T22:32:37.455Z,23.42
2023-01-01T22:38:02.938Z,27.25
2023-01-01T22:43:31.164Z,25.20
2023-01-01T22:48:57.734Z,17.67
2023-01-01T22:54:18.950Z,25.73
2023-01-01T22:59:39.651Z,24.00
2023-01-01T23:05:00.137Z,26.38
2023-01-01T23:10:20.988Z,11.13
2023-01-01T23:16:00.192Z,21.10
2023-01-01T23:21:27.030Z,22.15
2023-01-01T23:26:49.157Z,17.77
2023-01-01T23:32:09.843Z,24.15
2023-01-01T23:37:30.810Z,17.08
2023-01-01T23:42:51.368Z,19.17
2023-01-01T23:48:11.808Z,16.73
2023-01-01T23:53:32.476Z,11.77
2023-01-01T23:58:53.237Z,14.32
